createdAt,value
2022-12-11T00:00:52.642Z,17.52
2022-12-11T00:02:24.313Z,15.75
2022-12-11T00:03:56.004Z,14.43
2022-12-11T00:05:27.612Z,16.00
2022-12-11T00:06:59.178Z,16.15
2022-12-11T00:08:30.833Z,19.52
2022-12-11T00:10:02.399Z,17.10
2022-12-11T00:11:33.927Z,14.10
2022-12-11T00:13:05.662Z,14.27
2022-12-11T00:14:37.281Z,16.55
2022-12-11T00:16:09.550Z,18.67
2022-12-11T00:17:41.273Z,15.52
2022-12-11T00:19:13.233Z,15.50
2022-12-11T00:20:44.776Z,13.43
2022-12-11T00:22:16.359Z,16.88
2022-12-11T00:23:47.971Z,15.80
2022-12-11T00:25:19.532Z,16.75
2022-12-11T00:26:51.223Z,15.23
2022-12-11T00:28:23.506Z,14.43
2022-12-11T00:29:55.113Z,16.02
2022-12-11T00:31:26.808Z,13.13
2022-12-11T00:32:59.204Z,15.75
2022-12-11T00:34:30.745Z,14.10
2022-12-11T00:36:02.424Z,18.88
2022-12-11T00:37:34.145Z,18.75
2022-12-11T00:39:06.041Z,20.60
2022-12-11T00:40:37.656Z,17.48
2022-12-11T00:42:09.690Z,16.05
2022-12-11T00:43:41.343Z,16.33
2022-12-11T00:45:13.109Z,18.92
2022-12-11T00:46:44.885Z,18.38
2022-12-11T00:48:16.488Z,16.30
2022-12-11T00:49:50.012Z,18.50
2022-12-11T00:51:22.170Z,18.75
2022-12-11T00:52:53.806Z,13.40
2022-12-11T00:54:25.546Z,18.15
2022-12-11T00:55:57.374Z,18.05
2022-12-11T00:57:28.959Z,15.43
2022-12-11T00:59:00.567Z,15.02
2022-12-11T01:00:32.707Z,15.43
2022-12-11T01:02:04.317Z,18.65
2022-12-11T01:03:36.396Z,18.92
2022-12-11T01:05:10.360Z,15.48
2022-12-11T01:06:42.141Z,14.32
2022-12-11T01:08:13.757Z,16.58
2022-12-11T01:10:04.166Z,13.10
2022-12-11T01:11:35.826Z,15.45
2022-12-11T01:13:07.605Z,14.80
2022-12-11T01:14:39.206Z,13.75
2022-12-11T01:16:14.373Z,11.85
2022-12-11T01:17:46.009Z,15.82
2022-12-11T01:19:17.516Z,12.40
2022-12-11T01:20:49.210Z,14.82
2022-12-11T01:22:21.065Z,12.65
2022-12-11T01:23:52.885Z,13.93
2022-12-11T01:25:25.628Z,14.20
2022-12-11T01:26:57.274Z,15.90
2022-12-11T01:28:28.837Z,13.95
2022-12-11T01:30:00.459Z,13.63
2022-12-11T01:31:32.163Z,12.82
2022-12-11T01:33:03.916Z,14.13
2022-12-11T01:34:35.579Z,13.63
2022-12-11T01:36:08.847Z,12.60
2022-12-11T01:37:40.497Z,10.77
2022-12-11T01:39:12.178Z,13.73
2022-12-11T01:40:54.373Z,15.18
2022-12-11T01:42:26.327Z,13.40
2022-12-11T01:44:05.475Z,12.00
2022-12-11T01:45:44.728Z,13.52
2022-12-11T01:47:17.118Z,13.27
2022-12-11T01:48:48.776Z,12.80
2022-12-11T01:50:20.558Z,12.38
2022-12-11T01:52:01.451Z,13.00
2022-12-11T01:53:41.663Z,11.75
2022-12-11T01:55:14.688Z,11.35
2022-12-11T01:56:49.990Z,10.25
2022-12-11T01:58:28.402Z,12.63
2022-12-11T02:00:00.123Z,10.93
2022-12-11T02:01:33.670Z,11.63
2022-12-11T02:03:05.261Z,10.20
2022-12-11T02:04:39.022Z,11.68
2022-12-11T02:06:39.775Z,11.07
2022-12-11T02:08:11.891Z,10.50
2022-12-11T02:09:46.602Z,11.80
2022-12-11T02:11:21.938Z,14.85
2022-12-11T02:13:04.944Z,15.25
2022-12-11T02:14:54.411Z,13.43
2022-12-11T02:16:31.113Z,15.63
2022-12-11T02:18:24.804Z,15.35
2022-12-11T02:20:18.389Z,15.13
2022-12-11T02:21:55.441Z,14.40
2022-12-11T02:23:32.933Z,13.90
2022-12-11T02:25:31.338Z,14.52
2022-12-11T02:27:44.124Z,11.50
2022-12-11T02:29:25.235Z,15.27
2022-12-11T02:31:10.379Z,12.20
2022-12-11T02:32:47.686Z,10.60
2022-12-11T02:34:25.256Z,15.73
2022-12-11T02:35:57.348Z,15.05
2022-12-11T02:37:32.094Z,15.52
2022-12-11T02:39:05.778Z,16.92
2022-12-11T02:40:40.795Z,16.48
2022-12-11T02:42:16.372Z,17.00
2022-12-11T02:43:50.492Z,16.02
2022-12-11T02:45:24.317Z,17.17
2022-12-11T02:46:56.448Z,15.27
2022-12-11T02:48:28.107Z,19.02
2022-12-11T02:50:02.105Z,16.50
2022-12-11T02:51:39.084Z,18.10
2022-12-11T02:53:13.822Z,15.60
2022-12-11T02:54:47.225Z,18.00
2022-12-11T02:56:36.602Z,17.45
2022-12-11T02:58:19.725Z,20.10
2022-12-11T02:59:51.514Z,16.25
2022-12-11T03:01:23.381Z,15.45
2022-12-11T03:02:55.278Z,16.80
2022-12-11T03:04:26.971Z,17.30
2022-12-11T03:05:58.616Z,14.55
2022-12-11T03:07:36.116Z,15.48
2022-12-11T03:09:08.183Z,14.65
2022-12-11T03:10:39.863Z,14.25
2022-12-11T03:12:17.100Z,16.67
2022-12-11T03:13:48.900Z,19.42
2022-12-11T03:15:23.145Z,16.00
2022-12-11T03:17:12.107Z,13.55
2022-12-11T03:18:58.736Z,16.95
2022-12-11T03:20:36.824Z,15.43
2022-12-11T03:22:20.951Z,16.13
2022-12-11T03:24:05.192Z,15.43
2022-12-11T03:25:43.543Z,16.17
2022-12-11T03:27:23.838Z,16.98
2022-12-11T03:29:03.072Z,14.75
2022-12-11T03:30:37.131Z,13.48
2022-12-11T03:32:13.991Z,13.35
2022-12-11T03:33:50.477Z,15.18
2022-12-11T03:35:45.360Z,16.40
2022-12-11T03:37:17.822Z,15.70
2022-12-11T03:39:12.804Z,17.92
2022-12-11T03:40:49.268Z,15.50
2022-12-11T03:42:23.513Z,16.48
2022-12-11T03:43:58.443Z,17.30
2022-12-11T03:45:30.409Z,18.25
2022-12-11T03:47:05.976Z,16.67
2022-12-11T03:48:41.772Z,21.95
2022-12-11T03:50:16.374Z,16.90
2022-12-11T03:51:51.362Z,21.25
2022-12-11T03:53:25.728Z,18.13
2022-12-11T03:55:00.961Z,17.90
2022-12-11T03:56:35.642Z,19.65
2022-12-11T03:58:07.705Z,19.13
2022-12-11T03:59:39.556Z,18.88
2022-12-11T04:01:11.618Z,19.30
2022-12-11T04:02:44.612Z,20.67
2022-12-11T04:04:16.360Z,18.15
2022-12-11T04:05:50.185Z,19.30
2022-12-11T04:07:21.892Z,18.40
2022-12-11T04:08:53.377Z,17.63
2022-12-11T04:10:24.990Z,17.77
2022-12-11T04:11:56.570Z,18.75
2022-12-11T04:13:28.163Z,19.83
2022-12-11T04:15:02.367Z,20.52
2022-12-11T04:16:34.147Z,17.60
2022-12-11T04:18:26.237Z,16.30
2022-12-11T04:20:16.468Z,17.55
2022-12-11T04:22:06.278Z,17.40
2022-12-11T04:23:56.432Z,15.45
2022-12-11T04:25:27.985Z,15.52
2022-12-11T04:26:59.846Z,16.75
2022-12-11T04:28:31.465Z,17.95
2022-12-11T04:30:06.644Z,16.50
2022-12-11T04:31:38.212Z,15.82
2022-12-11T04:33:09.782Z,16.48
2022-12-11T04:34:41.398Z,18.80
2022-12-11T04:36:14.115Z,18.50
2022-12-11T04:37:46.173Z,18.60
2022-12-11T04:39:17.779Z,20.27
2022-12-11T04:40:49.339Z,18.73
2022-12-11T04:42:20.914Z,20.95
2022-12-11T04:43:52.497Z,16.48
2022-12-11T04:45:24.156Z,19.17
2022-12-11T04:46:55.726Z,21.52
2022-12-11T04:48:27.269Z,19.38
2022-12-11T04:49:58.844Z,16.05
2022-12-11T04:51:30.756Z,18.55
2022-12-11T04:53:02.355Z,24.42
2022-12-11T04:54:34.024Z,19.17
2022-12-11T04:56:07.502Z,18.00
2022-12-11T04:57:39.273Z,20.17
2022-12-11T04:59:10.877Z,20.48
2022-12-11T05:00:42.711Z,19.90
2022-12-11T05:02:15.666Z,17.00
2022-12-11T05:03:48.058Z,18.38
2022-12-11T05:05:19.672Z,20.02
2022-12-11T05:06:51.357Z,23.98
2022-12-11T05:08:22.975Z,15.82
2022-12-11T05:09:54.559Z,15.18
2022-12-11T05:11:26.088Z,17.67
2022-12-11T05:12:57.682Z,16.73
2022-12-11T05:14:31.921Z,17.85
2022-12-11T05:16:05.710Z,17.95
2022-12-11T05:17:37.622Z,16.50
2022-12-11T05:19:09.427Z,17.00
2022-12-11T05:20:41.049Z,14.73
2022-12-11T05:22:12.593Z,17.88
2022-12-11T05:23:44.306Z,18.05
2022-12-11T05:25:15.846Z,15.73
2022-12-11T05:26:47.421Z,19.23
2022-12-11T05:28:18.990Z,15.30
2022-12-11T05:29:53.655Z,20.90
2022-12-11T05:31:29.441Z,20.73
2022-12-11T05:33:01.052Z,19.08
2022-12-11T05:34:32.975Z,20.08
2022-12-11T05:36:04.886Z,18.50
2022-12-11T05:37:36.432Z,18.42
2022-12-11T05:39:08.039Z,19.77
2022-12-11T05:40:39.761Z,18.60
2022-12-11T05:42:11.377Z,20.23
2022-12-11T05:43:43.337Z,17.77
2022-12-11T05:45:14.974Z,18.92
2022-12-11T05:46:46.545Z,22.23
2022-12-11T05:48:18.163Z,18.33
2022-12-11T05:49:49.813Z,24.25
2022-12-11T05:51:21.721Z,18.67
2022-12-11T05:52:53.250Z,16.50
2022-12-11T05:54:24.831Z,20.02
2022-12-11T05:56:02.346Z,19.13
2022-12-11T05:57:34.008Z,19.83
2022-12-11T05:59:06.553Z,23.02
2022-12-11T06:00:41.101Z,20.52
2022-12-11T06:02:13.141Z,19.23
2022-12-11T06:03:44.831Z,19.83
2022-12-11T06:05:16.574Z,20.15
2022-12-11T06:06:48.157Z,18.83
2022-12-11T06:08:19.700Z,23.65
2022-12-11T06:09:51.311Z,23.95
2022-12-11T06:11:24.452Z,22.83
2022-12-11T06:12:56.073Z,20.63
2022-12-11T06:14:27.621Z,21.70
2022-12-11T06:16:04.905Z,16.27
2022-12-11T06:17:36.576Z,20.25
2022-12-11T06:19:17.942Z,19.85
2022-12-11T06:20:49.597Z,20.20
2022-12-11T06:22:21.125Z,17.90
2022-12-11T06:23:54.915Z,16.65
2022-12-11T06:25:26.538Z,18.33
2022-12-11T06:26:58.419Z,16.92
2022-12-11T06:28:30.029Z,23.08
2022-12-11T06:30:01.754Z,17.98
2022-12-11T06:31:33.459Z,16.55
2022-12-11T06:33:05.114Z,24.65
2022-12-11T06:34:36.841Z,21.52
2022-12-11T06:36:13.770Z,19.30
2022-12-11T06:37:45.381Z,21.23
2022-12-11T06:39:16.951Z,19.60
2022-12-11T06:40:55.990Z,19.77
2022-12-11T06:42:29.894Z,17.73
2022-12-11T06:44:01.468Z,19.55
2022-12-11T06:45:33.214Z,16.80
2022-12-11T06:47:05.406Z,17.73
2022-12-11T06:48:37.903Z,21.77
2022-12-11T06:50:09.868Z,22.13
2022-12-11T06:51:41.371Z,18.13
2022-12-11T06:53:14.948Z,21.17
2022-12-11T06:54:46.569Z,18.80
2022-12-11T06:56:18.257Z,22.23
2022-12-11T06:57:49.919Z,19.08
2022-12-11T06:59:21.560Z,18.67
2022-12-11T07:00:53.144Z,15.77
2022-12-11T07:02:24.743Z,20.85
2022-12-11T07:03:58.845Z,19.73
2022-12-11T07:05:31.333Z,19.00
2022-12-11T07:07:02.871Z,21.15
2022-12-11T07:08:34.965Z,24.27
2022-12-11T07:10:08.612Z,21.08
2022-12-11T07:11:40.425Z,20.58
2022-12-11T07:13:12.079Z,22.83
2022-12-11T07:14:43.616Z,16.92
2022-12-11T07:16:16.408Z,19.60
2022-12-11T07:17:48.069Z,21.25
2022-12-11T07:19:19.622Z,15.57
2022-12-11T07:20:51.205Z,21.58
2022-12-11T07:22:22.942Z,15.98
2022-12-11T07:23:54.618Z,20.25
2022-12-11T07:25:26.182Z,16.20
2022-12-11T07:26:57.745Z,22.73
2022-12-11T07:28:29.333Z,16.48
2022-12-11T07:30:00.918Z,17.95
2022-12-11T07:31:32.629Z,21.40
2022-12-11T07:33:04.343Z,20.35
2022-12-11T07:34:36.116Z,20.20
2022-12-11T07:36:10.239Z,18.63
2022-12-11T07:37:41.793Z,20.35
2022-12-11T07:39:13.499Z,22.80
2022-12-11T07:40:45.126Z,18.77
2022-12-11T07:42:16.839Z,21.15
2022-12-11T07:43:48.553Z,18.55
2022-12-11T07:45:20.172Z,19.35
2022-12-11T07:46:51.765Z,19.75
2022-12-11T07:48:23.366Z,19.05
2022-12-11T07:49:54.923Z,28.45
2022-12-11T07:51:29.336Z,24.13
2022-12-11T07:53:00.882Z,19.65
2022-12-11T07:54:32.513Z,32.22
2022-12-11T07:56:04.556Z,28.48
2022-12-11T07:57:36.352Z,23.02
2022-12-11T07:59:08.319Z,33.38
2022-12-11T08:00:39.997Z,55.05
2022-12-11T08:02:12.032Z,34.70
2022-12-11T08:03:43.991Z,24.50
2022-12-11T08:05:15.617Z,21.15
2022-12-11T08:06:47.702Z,23.13
2022-12-11T08:08:20.196Z,17.73
2022-12-11T08:09:51.871Z,19.42
2022-12-11T08:11:24.003Z,21.35
2022-12-11T08:12:55.532Z,23.90
2022-12-11T08:14:27.070Z,19.95
2022-12-11T08:15:59.561Z,17.02
2022-12-11T08:17:36.652Z,19.52
2022-12-11T08:19:12.269Z,22.38
2022-12-11T08:20:43.836Z,15.98
2022-12-11T08:22:16.396Z,21.45
2022-12-11T08:23:48.892Z,23.75
2022-12-11T08:25:20.493Z,18.35
2022-12-11T08:26:52.149Z,17.77
2022-12-11T08:28:23.687Z,23.98
2022-12-11T08:29:55.196Z,21.27
2022-12-11T08:31:27.605Z,24.08
2022-12-11T08:32:59.848Z,21.27
2022-12-11T08:34:31.433Z,23.67
2022-12-11T08:36:04.939Z,25.58
2022-12-11T08:37:36.588Z,20.45
2022-12-11T08:39:08.263Z,22.13
2022-12-11T08:40:39.857Z,20.60
2022-12-11T08:42:11.480Z,21.40
2022-12-11T08:43:44.030Z,18.30
2022-12-11T08:45:24.896Z,20.65
2022-12-11T08:46:56.559Z,22.60
2022-12-11T08:48:28.140Z,22.90
2022-12-11T08:49:59.716Z,22.05
2022-12-11T08:51:31.530Z,24.52
2022-12-11T08:53:03.242Z,23.52
2022-12-11T08:54:36.374Z,24.85
2022-12-11T08:56:16.568Z,24.08
2022-12-11T08:57:48.136Z,21.17
2022-12-11T08:59:19.722Z,20.55
2022-12-11T09:00:51.318Z,19.73
2022-12-11T09:02:22.990Z,20.85
2022-12-11T09:03:56.480Z,24.75
2022-12-11T09:05:28.026Z,19.00
2022-12-11T09:06:59.542Z,21.70
2022-12-11T09:08:31.200Z,21.10
2022-12-11T09:10:03.914Z,18.48
2022-12-11T09:11:37.866Z,18.30
2022-12-11T09:13:09.470Z,19.00
2022-12-11T09:14:41.061Z,21.50
2022-12-11T09:16:15.600Z,19.77
2022-12-11T09:17:47.199Z,22.08
2022-12-11T09:19:18.877Z,22.23
2022-12-11T09:20:58.738Z,20.33
2022-12-11T09:22:33.410Z,18.45
2022-12-11T09:24:05.747Z,21.25
2022-12-11T09:25:40.532Z,19.05
2022-12-11T09:27:12.072Z,20.05
2022-12-11T09:28:46.610Z,20.30
2022-12-11T09:30:18.761Z,20.98
2022-12-11T09:31:50.366Z,25.10
2022-12-11T09:33:22.072Z,20.52
2022-12-11T09:34:53.951Z,21.38
2022-12-11T09:36:26.164Z,23.48
2022-12-11T09:37:57.997Z,24.98
2022-12-11T09:39:30.126Z,22.00
2022-12-11T09:41:02.704Z,21.58
2022-12-11T09:43:06.710Z,24.05
2022-12-11T09:44:42.208Z,20.60
2022-12-11T09:46:16.544Z,22.92
2022-12-11T09:47:52.961Z,20.95
2022-12-11T09:49:35.104Z,21.95
2022-12-11T09:51:23.254Z,26.85
2022-12-11T09:53:09.432Z,20.40
2022-12-11T09:54:50.096Z,21.23
2022-12-11T09:56:34.617Z,21.55
2022-12-11T09:58:27.798Z,23.38
2022-12-11T10:00:05.966Z,20.85
2022-12-11T10:01:46.466Z,21.55
2022-12-11T10:03:26.869Z,19.88
2022-12-11T10:05:22.485Z,22.35
2022-12-11T10:06:54.042Z,22.83
2022-12-11T10:08:50.618Z,21.20
2022-12-11T10:10:47.077Z,20.65
2022-12-11T10:12:40.068Z,23.80
2022-12-11T10:14:17.366Z,21.20
2022-12-11T10:16:03.883Z,22.00
2022-12-11T10:17:38.667Z,23.73
2022-12-11T10:19:19.387Z,23.42
2022-12-11T10:20:52.997Z,19.83
2022-12-11T10:22:29.879Z,26.70
2022-12-11T10:24:05.734Z,22.67
2022-12-11T10:25:42.316Z,22.30
2022-12-11T10:27:22.041Z,22.27
2022-12-11T10:28:54.385Z,21.95
2022-12-11T10:30:34.726Z,25.25
2022-12-11T10:32:16.137Z,28.98
2022-12-11T10:33:53.796Z,28.92
2022-12-11T10:35:53.442Z,26.17
2022-12-11T10:37:25.329Z,20.63
2022-12-11T10:38:57.973Z,22.20
2022-12-11T10:40:32.402Z,22.48
2022-12-11T10:42:19.290Z,25.58
2022-12-11T10:43:53.290Z,21.65
2022-12-11T10:45:25.029Z,19.00
2022-12-11T10:47:18.092Z,18.73
2022-12-11T10:48:55.860Z,22.58
2022-12-11T10:50:27.552Z,23.17
2022-12-11T10:52:02.238Z,23.85
2022-12-11T10:53:34.923Z,21.45
2022-12-11T10:55:34.673Z,16.52
2022-12-11T10:57:08.891Z,23.02
2022-12-11T10:58:49.234Z,23.48
2022-12-11T11:00:34.645Z,23.55
2022-12-11T11:02:18.306Z,24.35
2022-12-11T11:03:58.947Z,24.10
2022-12-11T11:05:36.130Z,20.55
2022-12-11T11:07:16.965Z,23.73
2022-12-11T11:08:51.160Z,23.23
2022-12-11T11:10:22.787Z,22.17
2022-12-11T11:11:54.667Z,19.45
2022-12-11T11:13:28.860Z,25.17
2022-12-11T11:15:07.533Z,25.13
2022-12-11T11:16:41.403Z,25.40
2022-12-11T11:18:23.850Z,22.15
2022-12-11T11:19:57.920Z,24.00
2022-12-11T11:21:31.888Z,24.13
2022-12-11T11:23:14.144Z,23.63
2022-12-11T11:24:56.543Z,19.15
2022-12-11T11:27:04.386Z,20.42
2022-12-11T11:28:34.359Z,16.80
2022-12-11T11:30:22.691Z,21.90
2022-12-11T11:31:54.654Z,23.27
2022-12-11T11:33:26.736Z,20.75
2022-12-11T11:35:29.039Z,20.60
2022-12-11T11:37:05.651Z,23.98
2022-12-11T11:38:49.892Z,23.58
2022-12-11T11:40:37.038Z,26.50
2022-12-11T11:42:27.858Z,25.95
2022-12-11T11:44:02.404Z,21.73
2022-12-11T11:46:20.535Z,23.48
2022-12-11T11:48:18.158Z,16.55
2022-12-11T11:49:55.916Z,18.92
2022-12-11T11:51:36.008Z,19.80
2022-12-11T11:53:20.312Z,17.98
2022-12-11T11:55:24.450Z,19.85
2022-12-11T11:56:57.296Z,17.60
2022-12-11T11:58:57.566Z,20.23
2022-12-11T12:00:33.940Z,19.33
2022-12-11T12:02:14.991Z,16.05
2022-12-11T12:03:49.315Z,17.73
2022-12-11T12:05:35.553Z,18.95
2022-12-11T12:07:32.600Z,17.33
2022-12-11T12:09:16.939Z,18.35
2022-12-11T12:10:59.915Z,16.80
2022-12-11T12:12:40.870Z,14.60
2022-12-11T12:14:50.725Z,12.35
2022-12-11T12:16:53.637Z,16.83
2022-12-11T12:19:03.936Z,18.13
2022-12-11T12:20:50.959Z,14.75
2022-12-11T12:22:47.367Z,14.45
2022-12-11T12:24:28.382Z,15.63
2022-12-11T12:26:15.176Z,51.50
2022-12-11T12:28:19.922Z,16.73
2022-12-11T12:30:04.675Z,13.70
2022-12-11T12:31:49.705Z,71.05
2022-12-11T12:33:22.035Z,74.10
2022-12-11T12:35:08.756Z,25.20
2022-12-11T12:36:55.007Z,28.30
2022-12-11T12:38:50.370Z,25.55
2022-12-11T12:40:28.514Z,20.67
2022-12-11T12:42:26.886Z,18.27
2022-12-11T12:44:13.756Z,16.80
2022-12-11T12:45:48.302Z,17.52
2022-12-11T12:47:21.967Z,14.57
2022-12-11T12:48:56.159Z,15.75
2022-12-11T12:50:44.093Z,18.90
2022-12-11T12:52:37.481Z,18.13
2022-12-11T12:54:14.826Z,18.75
2022-12-11T12:55:48.554Z,18.05
2022-12-11T12:57:21.305Z,19.75
2022-12-11T12:58:53.073Z,24.33
2022-12-11T13:00:37.702Z,21.33
2022-12-11T13:02:16.519Z,20.48
2022-12-11T13:04:06.520Z,20.88
2022-12-11T13:05:43.747Z,20.48
2022-12-11T13:07:24.694Z,19.63
2022-12-11T13:08:57.062Z,18.70
2022-12-11T13:10:34.805Z,19.90
2022-12-11T13:12:16.156Z,20.23
2022-12-11T13:14:03.371Z,19.02
2022-12-11T13:15:46.127Z,18.80
2022-12-11T13:17:21.181Z,17.95
2022-12-11T13:18:54.891Z,18.88
2022-12-11T13:20:30.566Z,18.42
2022-12-11T13:22:05.000Z,18.38
2022-12-11T13:23:40.424Z,18.45
2022-12-11T13:25:28.102Z,19.05
2022-12-11T13:27:25.451Z,18.25
2022-12-11T13:28:58.849Z,16.20
2022-12-11T13:30:31.921Z,19.17
2022-12-11T13:32:22.214Z,16.23
2022-12-11T13:33:57.246Z,17.75
2022-12-11T13:35:31.301Z,23.30
2022-12-11T13:37:04.855Z,16.52
2022-12-11T13:38:39.100Z,15.50
2022-12-11T13:40:26.866Z,17.35
2022-12-11T13:42:02.337Z,17.75
2022-12-11T13:43:34.290Z,16.05
2022-12-11T13:45:08.578Z,22.70
2022-12-11T13:46:41.466Z,18.05
2022-12-11T13:48:21.475Z,19.13
2022-12-11T13:49:59.864Z,18.60
2022-12-11T13:51:35.231Z,15.15
2022-12-11T13:53:07.824Z,14.07
2022-12-11T13:54:49.159Z,19.17
2022-12-11T13:56:23.365Z,20.38
2022-12-11T13:57:55.790Z,19.42
2022-12-11T13:59:32.930Z,21.00
2022-12-11T14:01:11.381Z,20.67
2022-12-11T14:02:43.748Z,17.20
2022-12-11T14:04:19.815Z,18.60
2022-12-11T14:05:51.646Z,17.33
2022-12-11T14:07:30.682Z,16.40
2022-12-11T14:09:07.350Z,16.77
2022-12-11T14:10:40.141Z,17.50
2022-12-11T14:12:21.849Z,19.67
2022-12-11T14:13:56.133Z,20.35
2022-12-11T14:15:30.150Z,16.60
2022-12-11T14:17:02.095Z,19.83
2022-12-11T14:18:36.618Z,17.90
2022-12-11T14:20:18.720Z,18.55
2022-12-11T14:22:01.962Z,18.13
2022-12-11T14:23:36.354Z,16.92
2022-12-11T14:25:21.787Z,15.55
2022-12-11T14:26:54.779Z,18.55
2022-12-11T14:28:28.253Z,16.98
2022-12-11T14:30:10.716Z,18.88
2022-12-11T14:31:44.595Z,16.08
2022-12-11T14:33:17.626Z,15.13
2022-12-11T14:34:51.481Z,16.67
2022-12-11T14:36:23.830Z,19.02
2022-12-11T14:37:58.367Z,17.90
2022-12-11T14:39:41.259Z,20.67
2022-12-11T14:41:25.381Z,16.92
2022-12-11T14:43:01.291Z,19.58
2022-12-11T14:44:51.913Z,17.33
2022-12-11T14:46:40.325Z,20.38
2022-12-11T14:48:22.639Z,19.40
2022-12-11T14:50:05.925Z,16.25
2022-12-11T14:51:41.130Z,19.60
2022-12-11T14:53:23.440Z,20.90
2022-12-11T14:55:01.548Z,16.15
2022-12-11T14:56:33.893Z,19.05
2022-12-11T14:58:14.656Z,19.65
2022-12-11T14:59:47.991Z,16.73
2022-12-11T15:01:32.386Z,19.33
2022-12-11T15:03:22.748Z,16.67
2022-12-11T15:05:11.351Z,18.65
2022-12-11T15:06:48.401Z,15.48
2022-12-11T15:08:26.111Z,19.67
2022-12-11T15:09:58.561Z,20.33
2022-12-11T15:11:32.059Z,25.15
2022-12-11T15:13:05.894Z,24.50
2022-12-11T15:14:56.128Z,22.83
2022-12-11T15:16:31.679Z,23.17
2022-12-11T15:18:08.332Z,19.50
2022-12-11T15:19:40.688Z,20.00
2022-12-11T15:21:12.769Z,29.05
2022-12-11T15:22:44.758Z,21.73
2022-12-11T15:24:40.109Z,23.73
2022-12-11T15:26:12.088Z,22.38
2022-12-11T15:27:43.801Z,26.80
2022-12-11T15:29:37.699Z,22.48
2022-12-11T15:31:25.006Z,18.80
2022-12-11T15:33:12.907Z,23.52
2022-12-11T15:34:52.439Z,17.35
2022-12-11T15:36:35.132Z,20.85
2022-12-11T15:38:07.029Z,20.48
2022-12-11T15:39:38.674Z,22.23
2022-12-11T15:41:16.683Z,21.48
2022-12-11T15:42:49.317Z,24.00
2022-12-11T15:44:23.597Z,22.80
2022-12-11T15:45:55.541Z,24.52
2022-12-11T15:47:29.816Z,21.35
2022-12-11T15:49:01.483Z,26.17
2022-12-11T15:50:33.079Z,29.58
2022-12-11T15:52:04.980Z,21.40
2022-12-11T15:53:36.852Z,23.85
2022-12-11T15:55:08.950Z,24.60
2022-12-11T15:56:40.896Z,26.73
2022-12-11T15:58:19.578Z,28.00
2022-12-11T15:59:54.094Z,23.73
2022-12-11T16:01:25.756Z,26.60
2022-12-11T16:02:58.097Z,26.35
2022-12-11T16:04:29.871Z,29.42
2022-12-11T16:06:01.615Z,27.00
2022-12-11T16:07:33.662Z,26.92
2022-12-11T16:09:05.688Z,24.88
2022-12-11T16:10:37.583Z,29.60
2022-12-11T16:12:09.553Z,25.85
2022-12-11T16:13:41.174Z,28.42
2022-12-11T16:15:19.895Z,32.25
2022-12-11T16:16:54.600Z,31.23
2022-12-11T16:18:26.800Z,32.88
2022-12-11T16:19:58.403Z,29.85
2022-12-11T16:21:30.080Z,26.92
2022-12-11T16:23:01.852Z,32.55
2022-12-11T16:24:33.486Z,27.73
2022-12-11T16:26:09.896Z,23.10
2022-12-11T16:27:41.642Z,23.15
2022-12-11T16:29:13.305Z,22.65
2022-12-11T16:30:45.393Z,22.33
2022-12-11T16:32:17.223Z,16.38
2022-12-11T16:33:48.838Z,22.83
2022-12-11T16:35:21.677Z,22.45
2022-12-11T16:36:53.348Z,17.92
2022-12-11T16:38:25.090Z,25.17
2022-12-11T16:39:56.786Z,23.33
2022-12-11T16:41:28.328Z,18.02
2022-12-11T16:43:01.089Z,17.90
2022-12-11T16:44:33.365Z,22.50
2022-12-11T16:46:05.241Z,19.40
2022-12-11T16:47:36.809Z,19.30
2022-12-11T16:49:08.835Z,22.83
2022-12-11T16:50:40.533Z,19.75
2022-12-11T16:52:13.034Z,19.83
2022-12-11T16:53:46.880Z,17.77
2022-12-11T16:55:22.109Z,18.33
2022-12-11T16:56:53.968Z,19.40
2022-12-11T16:58:25.576Z,19.15
2022-12-11T16:59:57.287Z,21.48
2022-12-11T17:01:29.105Z,19.45
2022-12-11T17:03:01.566Z,26.58
2022-12-11T17:04:33.276Z,25.48
2022-12-11T17:06:14.883Z,22.70
2022-12-11T17:07:46.875Z,26.75
2022-12-11T17:09:19.048Z,20.90
2022-12-11T17:10:51.895Z,26.58
2022-12-11T17:12:27.815Z,23.20
2022-12-11T17:14:00.664Z,23.40
2022-12-11T17:15:32.621Z,25.10
2022-12-11T17:17:04.550Z,38.38
2022-12-11T17:18:36.505Z,41.80
2022-12-11T17:20:09.566Z,29.80
2022-12-11T17:21:41.373Z,36.70
2022-12-11T17:23:13.590Z,24.75
2022-12-11T17:24:45.239Z,28.35
2022-12-11T17:26:17.391Z,30.73
2022-12-11T17:27:49.923Z,35.00
2022-12-11T17:29:22.015Z,31.80
2022-12-11T17:30:53.749Z,26.13
2022-12-11T17:32:25.350Z,22.00
2022-12-11T17:34:00.594Z,23.30
2022-12-11T17:35:33.161Z,24.52
2022-12-11T17:37:05.495Z,18.52
2022-12-11T17:38:37.392Z,27.58
2022-12-11T17:40:09.641Z,27.92
2022-12-11T17:41:41.605Z,23.95
2022-12-11T17:43:14.207Z,26.13
2022-12-11T17:44:46.321Z,31.27
2022-12-11T17:46:19.035Z,26.83
2022-12-11T17:47:50.824Z,22.70
2022-12-11T17:49:22.481Z,29.23
2022-12-11T17:50:54.292Z,30.55
2022-12-11T17:52:32.351Z,35.42
2022-12-11T17:54:06.197Z,30.40
2022-12-11T17:55:42.689Z,23.50
2022-12-11T17:57:14.506Z,27.75
2022-12-11T17:58:46.397Z,26.70
2022-12-11T18:00:18.402Z,26.02
2022-12-11T18:01:50.449Z,29.30
2022-12-11T18:03:22.842Z,23.70
2022-12-11T18:04:55.053Z,21.80
2022-12-11T18:06:27.410Z,25.90
2022-12-11T18:07:59.434Z,24.20
2022-12-11T18:09:31.104Z,27.83
2022-12-11T18:11:15.513Z,26.65
2022-12-11T18:12:47.186Z,26.92
2022-12-11T18:14:19.039Z,26.40
2022-12-11T18:16:16.867Z,27.60
2022-12-11T18:17:48.605Z,25.98
2022-12-11T18:19:22.179Z,28.75
2022-12-11T18:20:53.902Z,36.80
2022-12-11T18:22:25.753Z,27.33
2022-12-11T18:24:00.344Z,34.20
2022-12-11T18:25:32.963Z,36.17
2022-12-11T18:27:05.065Z,32.08
2022-12-11T18:28:37.024Z,29.10
2022-12-11T18:30:09.556Z,29.83
2022-12-11T18:31:42.885Z,27.35
2022-12-11T18:33:15.005Z,31.88
2022-12-11T18:34:46.807Z,35.03
2022-12-11T18:36:20.225Z,34.33
2022-12-11T18:37:53.279Z,28.50
2022-12-11T18:39:26.193Z,29.10
2022-12-11T18:40:59.064Z,40.80
2022-12-11T18:42:33.326Z,39.67
2022-12-11T18:44:09.733Z,48.60
2022-12-11T18:45:45.961Z,40.95
2022-12-11T18:48:50.559Z,34.00
2022-12-11T18:50:22.307Z,33.97
2022-12-11T18:51:54.290Z,34.78
2022-12-11T18:53:26.120Z,29.45
2022-12-11T18:54:57.757Z,31.05
2022-12-11T18:56:29.503Z,29.80
2022-12-11T18:58:01.281Z,28.73
2022-12-11T18:59:33.933Z,30.30
2022-12-11T19:01:11.667Z,29.65
2022-12-11T19:02:43.699Z,29.50
2022-12-11T19:04:15.720Z,29.35
2022-12-11T19:05:47.459Z,30.52
2022-12-11T19:07:19.281Z,31.13
2022-12-11T19:08:52.100Z,34.35
2022-12-11T19:10:25.239Z,32.67
2022-12-11T19:11:58.295Z,33.70
2022-12-11T19:13:30.547Z,34.00
2022-12-11T19:15:02.927Z,35.65
2022-12-11T19:16:39.340Z,33.40
2022-12-11T19:18:11.429Z,34.47
2022-12-11T19:19:46.187Z,34.22
2022-12-11T19:21:19.058Z,31.75
2022-12-11T19:22:51.774Z,36.47
2022-12-11T19:24:24.505Z,34.20
2022-12-11T19:25:56.159Z,38.47
2022-12-11T19:27:28.818Z,33.80
2022-12-11T19:29:00.841Z,36.22
2022-12-11T19:30:32.678Z,37.00
2022-12-11T19:32:05.475Z,36.60
2022-12-11T19:33:39.185Z,32.95
2022-12-11T19:35:13.960Z,31.95
2022-12-11T19:36:45.913Z,35.13
2022-12-11T19:38:17.664Z,35.88
2022-12-11T19:39:50.648Z,34.10
2022-12-11T19:41:27.902Z,33.17
2022-12-11T19:42:59.968Z,37.15
2022-12-11T19:44:33.173Z,33.00
2022-12-11T19:46:08.092Z,41.00
2022-12-11T19:47:39.960Z,36.30
2022-12-11T19:49:12.309Z,34.55
2022-12-11T19:50:44.998Z,31.80
2022-12-11T19:52:18.155Z,31.33
2022-12-11T19:53:52.382Z,34.30
2022-12-11T19:55:25.289Z,30.65
2022-12-11T19:56:57.797Z,29.50
2022-12-11T19:58:29.945Z,30.55
2022-12-11T20:00:02.240Z,41.90
2022-12-11T20:01:46.950Z,41.38
2022-12-11T20:03:18.751Z,42.17
2022-12-11T20:04:50.694Z,46.88
2022-12-11T20:06:22.883Z,38.30
2022-12-11T20:07:54.622Z,34.38
2022-12-11T20:09:26.484Z,34.33
2022-12-11T20:11:06.502Z,39.38
2022-12-11T20:12:40.385Z,39.08
2022-12-11T20:14:20.114Z,34.03
2022-12-11T20:15:51.839Z,37.70
2022-12-11T20:17:24.253Z,41.95
2022-12-11T20:18:57.303Z,30.63
2022-12-11T20:20:29.836Z,38.13
2022-12-11T20:22:01.495Z,38.85
2022-12-11T20:23:33.817Z,33.97
2022-12-11T20:25:05.985Z,34.92
2022-12-11T20:26:38.340Z,33.00
2022-12-11T20:28:10.166Z,30.83
2022-12-11T20:29:45.809Z,31.85
2022-12-11T20:31:21.826Z,33.80
2022-12-11T20:32:55.046Z,37.75